Fluvanna, Texas
Current Conditions -  °F | °C
As of 2:55 AM on Wednesday 22 Oct 2014 (Local Time) from KSNK Reporting Station
Scattered Clouds Scattered Clouds  
Wind Chill: 62°   Ceiling: Unl
Heat Index: 62°   Visibility: 10mi
Dew Point: 52°   Wind: 9mph
Humidity: 70%   Direction: 140°SE
Pressure: 30.08"   Gusts: NA
Location:  32.89°N, 101.15°W
Report Text: KSNK 220755Z AUTO 14008KT 10SM SCT120 17/11 A3008 RMK AO2 T01680113
Loading
Personal Weather Stations






























Interactive Weather Map
Tropical Storm Tracking
New forecast layout! Learn more

10-Day Weather Forecast

Advertisements
Track Severe Weather on mobile